sensor_id;sensor_type;location;lat;lon;timestamp;pressure;altitude;pressure_sealevel;temperature;humidity
27429;BME280;14881;48.092;11.574;2023-09-30T00:02:20;96215.09;;;16.53;100.00
27429;BME280;14881;48.092;11.574;2023-09-30T00:04:47;96203.69;;;16.37;100.00
27429;BME280;14881;48.092;11.574;2023-09-30T00:07:14;96206.31;;;16.28;100.00
27429;BME280;14881;48.092;11.574;2023-09-30T00:09:40;96203.28;;;16.30;100.00
27429;BME280;14881;48.092;11.574;2023-09-30T00:12:07;96204.91;;;16.31;100.00
27429;BME280;14881;48.092;11.574;2023-09-30T00:14:33;96206.84;;;16.30;100.00
27429;BME280;14881;48.092;11.574;2023-09-30T00:17:00;96212.50;;;16.34;100.00
27429;BME280;14881;48.092;11.574;2023-09-30T00:19:26;96224.41;;;16.29;100.00
27429;BME280;14881;48.092;11.574;2023-09-30T00:21:53;96226.22;;;16.34;100.00
27429;BME280;14881;48.092;11.574;2023-09-30T00:24:20;96232.22;;;16.36;100.00
27429;BME280;14881;48.092;11.574;2023-09-30T00:26:46;96225.09;;;16.35;100.00
27429;BME280;14881;48.092;11.574;2023-09-30T00:29:13;96233.75;;;16.42;100.00
27429;BME280;14881;48.092;11.574;2023-09-30T00:31:39;96231.66;;;16.48;100.00
27429;BME280;14881;48.092;11.574;2023-09-30T00:34:06;96235.38;;;16.43;100.00
27429;BME280;14881;48.092;11.574;2023-09-30T00:36:34;96225.88;;;16.49;100.00
27429;BME280;14881;48.092;11.574;2023-09-30T00:39:00;96242.03;;;16.64;100.00
27429;BME280;14881;48.092;11.574;2023-09-30T00:41:27;96237.22;;;16.70;100.00
27429;BME280;14881;48.092;11.574;2023-09-30T00:43:54;96232.25;;;16.72;100.00
27429;BME280;14881;48.092;11.574;2023-09-30T00:46:26;96228.19;;;16.69;100.00
27429;BME280;14881;48.092;11.574;2023-09-30T00:48:53;96227.06;;;16.70;100.00
27429;BME280;14881;48.092;11.574;2023-09-30T00:51:21;96225.44;;;16.69;100.00
27429;BME280;14881;48.092;11.574;2023-09-30T00:53:48;96229.31;;;16.68;100.00
27429;BME280;14881;48.092;11.574;2023-09-30T00:56:15;96232.66;;;16.65;100.00
27429;BME280;14881;48.092;11.574;2023-09-30T00:58:43;96236.34;;;16.61;100.00
27429;BME280;14881;48.092;11.574;2023-09-30T01:01:09;96226.09;;;16.53;100.00
27429;BME280;14881;48.092;11.574;2023-09-30T01:03:36;96223.44;;;16.48;100.00
27429;BME280;14881;48.092;11.574;2023-09-30T01:06:03;96225.50;;;16.42;100.00
27429;BME280;14881;48.092;11.574;2023-09-30T01:08:31;96234.66;;;16.38;100.00
27429;BME280;14881;48.092;11.574;2023-09-30T01:10:58;96242.78;;;16.29;100.00
27429;BME280;14881;48.092;11.574;2023-09-30T01:13:31;96239.78;;;16.17;100.00
27429;BME280;14881;48.092;11.574;2023-09-30T01:15:58;96243.31;;;16.17;100.00
27429;BME280;14881;48.092;11.574;2023-09-30T01:18:28;96247.59;;;16.23;100.00
27429;BME280;14881;48.092;11.574;2023-09-30T01:20:55;96240.78;;;16.21;100.00
27429;BME280;14881;48.092;11.574;2023-09-30T01:23:23;96245.13;;;16.35;100.00
27429;BME280;14881;48.092;11.574;2023-09-30T01:25:49;96237.59;;;16.41;100.00
27429;BME280;14881;48.092;11.574;2023-09-30T01:28:16;96237.97;;;16.48;100.00
27429;BME280;14881;48.092;11.574;2023-09-30T01:30:42;96233.00;;;16.50;100.00
27429;BME280;14881;48.092;11.574;2023-09-30T01:33:10;96222.84;;;16.51;100.00
27429;BME280;14881;48.092;11.574;2023-09-30T01:35:36;96224.69;;;16.42;100.00
27429;BME280;14881;48.092;11.574;2023-09-30T01:38:03;96225.53;;;16.28;100.00
27429;BME280;14881;48.092;11.574;2023-09-30T01:40:30;96236.50;;;16.28;100.00
27429;BME280;14881;48.092;11.574;2023-09-30T01:42:56;96240.38;;;16.27;100.00
27429;BME280;14881;48.092;11.574;2023-09-30T01:45:23;96241.81;;;16.25;100.00
27429;BME280;14881;48.092;11.574;2023-09-30T01:47:49;96250.34;;;16.23;100.00
27429;BME280;14881;48.092;11.574;2023-09-30T01:50:16;96243.84;;;16.19;100.00
27429;BME280;14881;48.092;11.574;2023-09-30T01:52:43;96240.88;;;16.16;100.00
27429;BME280;14881;48.092;11.574;2023-09-30T01:55:09;96239.56;;;16.13;100.00
27429;BME280;14881;48.092;11.574;2023-09-30T01:57:37;96249.03;;;16.07;100.00
27429;BME280;14881;48.092;11.574;2023-09-30T02:00:05;96245.38;;;15.98;100.00
27429;BME280;14881;48.092;11.574;2023-09-30T02:02:35;96249.53;;;15.82;100.00
27429;BME280;14881;48.092;11.574;2023-09-30T02:05:03;96249.66;;;15.90;100.00
27429;BME280;14881;48.092;11.574;2023-09-30T02:07:29;96244.06;;;15.82;100.00
27429;BME280;14881;48.092;11.574;2023-09-30T02:09:57;96252.06;;;15.78;100.00
27429;BME280;14881;48.092;11.574;2023-09-30T02:12:23;96251.38;;;15.73;100.00
27429;BME280;14881;48.092;11.574;2023-09-30T02:14:50;96249.41;;;15.59;100.00
27429;BME280;14881;48.092;11.574;2023-09-30T02:17:16;96247.06;;;15.53;100.00
27429;BME280;14881;48.092;11.574;2023-09-30T02:19:43;96239.75;;;15.48;100.00
27429;BME280;14881;48.092;11.574;2023-09-30T02:22:09;96255.34;;;15.34;100.00
27429;BME280;14881;48.092;11.574;2023-09-30T02:24:36;96253.13;;;15.36;100.00
27429;BME280;14881;48.092;11.574;2023-09-30T02:27:02;96249.13;;;15.28;100.00
27429;BME280;14881;48.092;11.574;2023-09-30T02:29:29;96257.94;;;15.25;100.00
27429;BME280;14881;48.092;11.574;2023-09-30T02:31:57;96258.25;;;15.24;100.00
27429;BME280;14881;48.092;11.574;2023-09-30T02:34:24;96256.69;;;15.37;100.00
27429;BME280;14881;48.092;11.574;2023-09-30T02:36:51;96260.63;;;15.44;100.00
27429;BME280;14881;48.092;11.574;2023-09-30T02:39:17;96249.28;;;15.51;100.00
27429;BME280;14881;48.092;11.574;2023-09-30T02:41:44;96247.16;;;15.48;100.00
27429;BME280;14881;48.092;11.574;2023-09-30T02:44:10;96251.69;;;15.57;100.00
27429;BME280;14881;48.092;11.574;2023-09-30T02:46:37;96258.06;;;15.66;100.00
27429;BME280;14881;48.092;11.574;2023-09-30T02:49:04;96256.34;;;15.71;100.00
27429;BME280;14881;48.092;11.574;2023-09-30T02:51:31;96259.91;;;15.71;100.00
27429;BME280;14881;48.092;11.574;2023-09-30T02:53:57;96253.31;;;15.72;100.00
27429;BME280;14881;48.092;11.574;2023-09-30T02:56:24;96246.41;;;15.75;100.00
27429;BME280;14881;48.092;11.574;2023-09-30T02:58:52;96244.28;;;15.72;100.00
27429;BME280;14881;48.092;11.574;2023-09-30T03:01:18;96237.25;;;15.79;100.00
27429;BME280;14881;48.092;11.574;2023-09-30T03:03:46;96247.59;;;15.82;100.00
27429;BME280;14881;48.092;11.574;2023-09-30T03:06:13;96246.19;;;15.85;100.00
27429;BME280;14881;48.092;11.574;2023-09-30T03:08:41;96244.06;;;15.82;100.00
27429;BME280;14881;48.092;11.574;2023-09-30T03:11:07;96244.34;;;15.80;100.00
27429;BME280;14881;48.092;11.574;2023-09-30T03:13:33;96248.72;;;15.81;100.00
27429;BME280;14881;48.092;11.574;2023-09-30T03:16:00;96246.06;;;15.76;100.00
27429;BME280;14881;48.092;11.574;2023-09-30T03:18:27;96247.00;;;15.72;100.00
27429;BME280;14881;48.092;11.574;2023-09-30T03:21:00;96247.31;;;15.70;100.00
27429;BME280;14881;48.092;11.574;2023-09-30T03:23:27;96253.41;;;15.67;100.00
27429;BME280;14881;48.092;11.574;2023-09-30T03:25:56;96253.34;;;15.53;100.00
27429;BME280;14881;48.092;11.574;2023-09-30T03:28:23;96260.31;;;15.46;100.00
27429;BME280;14881;48.092;11.574;2023-09-30T03:30:50;96260.19;;;15.56;100.00
27429;BME280;14881;48.092;11.574;2023-09-30T03:33:16;96259.44;;;15.50;100.00
27429;BME280;14881;48.092;11.574;2023-09-30T03:35:43;96264.59;;;15.38;100.00
27429;BME280;14881;48.092;11.574;2023-09-30T03:38:10;96269.03;;;15.34;100.00
27429;BME280;14881;48.092;11.574;2023-09-30T03:40:39;96273.00;;;15.42;100.00
27429;BME280;14881;48.092;11.574;2023-09-30T03:43:05;96266.91;;;15.45;100.00
27429;BME280;14881;48.092;11.574;2023-09-30T03:45:32;96265.13;;;15.54;100.00
27429;BME280;14881;48.092;11.574;2023-09-30T03:47:58;96255.75;;;15.41;100.00
27429;BME280;14881;48.092;11.574;2023-09-30T03:50:25;96264.41;;;15.48;100.00
27429;BME280;14881;48.092;11.574;2023-09-30T03:52:51;96264.31;;;15.53;100.00
27429;BME280;14881;48.092;11.574;2023-09-30T03:55:18;96258.78;;;15.58;100.00
27429;BME280;14881;48.092;11.574;2023-09-30T03:57:48;96265.84;;;15.59;100.00
27429;BME280;14881;48.092;11.574;2023-09-30T04:00:17;96258.78;;;15.58;100.00
27429;BME280;14881;48.092;11.574;2023-09-30T04:02:45;96266.19;;;15.58;100.00
27429;BME280;14881;48.092;11.574;2023-09-30T04:05:14;96258.84;;;15.53;100.00
27429;BME280;14881;48.092;11.574;2023-09-30T04:07:42;96258.78;;;15.58;100.00
27429;BME280;14881;48.092;11.574;2023-09-30T04:10:09;96250.75;;;15.62;100.00
27429;BME280;14881;48.092;11.574;2023-09-30T04:12:36;96251.56;;;15.62;100.00
27429;BME280;14881;48.092;11.574;2023-09-30T04:15:04;96260.50;;;15.68;100.00
27429;BME280;14881;48.092;11.574;2023-09-30T04:17:30;96261.22;;;15.74;100.00
27429;BME280;14881;48.092;11.574;2023-09-30T04:19:57;96266.19;;;15.72;100.00
27429;BME280;14881;48.092;11.574;2023-09-30T04:22:23;96264.25;;;15.72;100.00
27429;BME280;14881;48.092;11.574;2023-09-30T04:24:51;96255.53;;;15.70;100.00
27429;BME280;14881;48.092;11.574;2023-09-30T04:27:20;96259.16;;;15.65;100.00
27429;BME280;14881;48.092;11.574;2023-09-30T04:29:47;96260.38;;;15.59;100.00
27429;BME280;14881;48.092;11.574;2023-09-30T04:32:15;96256.22;;;15.62;100.00
27429;BME280;14881;48.092;11.574;2023-09-30T04:34:42;96255.72;;;15.60;100.00
27429;BME280;14881;48.092;11.574;2023-09-30T04:37:12;96266.75;;;15.55;100.00
27429;BME280;14881;48.092;11.574;2023-09-30T04:39:39;96273.63;;;15.52;100.00
27429;BME280;14881;48.092;11.574;2023-09-30T04:42:06;96263.88;;;15.46;100.00
27429;BME280;14881;48.092;11.574;2023-09-30T04:44:36;96268.31;;;15.42;100.00
27429;BME280;14881;48.092;11.574;2023-09-30T04:47:04;96267.03;;;15.40;100.00
27429;BME280;14881;48.092;11.574;2023-09-30T04:49:31;96276.75;;;15.32;100.00
27429;BME280;14881;48.092;11.574;2023-09-30T04:51:57;96267.72;;;15.31;100.00
27429;BME280;14881;48.092;11.574;2023-09-30T04:54:24;96280.16;;;15.24;100.00
27429;BME280;14881;48.092;11.574;2023-09-30T04:56:51;96289.13;;;15.11;100.00
27429;BME280;14881;48.092;11.574;2023-09-30T04:59:17;96290.13;;;15.01;100.00
27429;BME280;14881;48.092;11.574;2023-09-30T05:01:43;96286.44;;;14.92;100.00
27429;BME280;14881;48.092;11.574;2023-09-30T05:04:10;96286.00;;;14.85;100.00
27429;BME280;14881;48.092;11.574;2023-09-30T05:06:37;96295.41;;;14.79;100.00
27429;BME280;14881;48.092;11.574;2023-09-30T05:09:04;96287.66;;;14.67;100.00
27429;BME280;14881;48.092;11.574;2023-09-30T05:11:32;96290.31;;;14.53;100.00
27429;BME280;14881;48.092;11.574;2023-09-30T05:14:00;96301.75;;;14.55;100.00
27429;BME280;14881;48.092;11.574;2023-09-30T05:16:27;96301.09;;;14.40;100.00
27429;BME280;14881;48.092;11.574;2023-09-30T05:18:53;96310.50;;;14.34;100.00
27429;BME280;14881;48.092;11.574;2023-09-30T05:21:20;96310.56;;;14.28;100.00
27429;BME280;14881;48.092;11.574;2023-09-30T05:23:48;96318.47;;;14.30;100.00
27429;BME280;14881;48.092;11.574;2023-09-30T05:26:15;96316.78;;;14.34;100.00
27429;BME280;14881;48.092;11.574;2023-09-30T05:28:42;96315.41;;;14.37;100.00
27429;BME280;14881;48.092;11.574;2023-09-30T05:31:08;96306.03;;;14.43;100.00
27429;BME280;14881;48.092;11.574;2023-09-30T05:33:35;96310.75;;;14.37;100.00
27429;BME280;14881;48.092;11.574;2023-09-30T05:36:02;96309.97;;;14.32;100.00
27429;BME280;14881;48.092;11.574;2023-09-30T05:38:29;96316.03;;;14.28;100.00
27429;BME280;14881;48.092;11.574;2023-09-30T05:40:57;96320.81;;;14.18;100.00
27429;BME280;14881;48.092;11.574;2023-09-30T05:43:24;96318.16;;;14.13;100.00
27429;BME280;14881;48.092;11.574;2023-09-30T05:45:51;96325.28;;;14.09;100.00
27429;BME280;14881;48.092;11.574;2023-09-30T05:48:22;96337.50;;;14.16;100.00
27429;BME280;14881;48.092;11.574;2023-09-30T05:50:49;96347.63;;;14.16;100.00
27429;BME280;14881;48.092;11.574;2023-09-30T05:53:15;96344.31;;;14.19;100.00
27429;BME280;14881;48.092;11.574;2023-09-30T05:55:42;96346.97;;;14.24;100.00
27429;BME280;14881;48.092;11.574;2023-09-30T05:58:09;96348.69;;;14.44;100.00
27429;BME280;14881;48.092;11.574;2023-09-30T06:00:36;96354.16;;;14.62;100.00
27429;BME280;14881;48.092;11.574;2023-09-30T06:03:03;96352.31;;;14.77;100.00
27429;BME280;14881;48.092;11.574;2023-09-30T06:05:32;96352.72;;;14.89;100.00
27429;BME280;14881;48.092;11.574;2023-09-30T06:07:59;96339.47;;;14.96;100.00
27429;BME280;14881;48.092;11.574;2023-09-30T06:10:28;96343.47;;;15.04;100.00
27429;BME280;14881;48.092;11.574;2023-09-30T06:12:56;96331.53;;;15.13;100.00
27429;BME280;14881;48.092;11.574;2023-09-30T06:15:24;96338.56;;;15.19;100.00
27429;BME280;14881;48.092;11.574;2023-09-30T06:17:52;96338.97;;;15.26;100.00
27429;BME280;14881;48.092;11.574;2023-09-30T06:20:19;96331.00;;;15.30;100.00
27429;BME280;14881;48.092;11.574;2023-09-30T06:22:50;96341.78;;;15.40;100.00
27429;BME280;14881;48.092;11.574;2023-09-30T06:25:17;96355.38;;;15.45;100.00
27429;BME280;14881;48.092;11.574;2023-09-30T06:27:44;96346.19;;;15.55;100.00
27429;BME280;14881;48.092;11.574;2023-09-30T06:30:11;96345.00;;;15.61;100.00
27429;BME280;14881;48.092;11.574;2023-09-30T06:32:41;96345.72;;;15.66;100.00
27429;BME280;14881;48.092;11.574;2023-09-30T06:35:08;96358.09;;;15.64;100.00
27429;BME280;14881;48.092;11.574;2023-09-30T06:37:36;96372.09;;;15.62;100.00
27429;BME280;14881;48.092;11.574;2023-09-30T06:40:04;96369.56;;;15.66;100.00
27429;BME280;14881;48.092;11.574;2023-09-30T06:42:30;96379.03;;;15.74;100.00
27429;BME280;14881;48.092;11.574;2023-09-30T06:44:57;96373.97;;;15.81;100.00
27429;BME280;14881;48.092;11.574;2023-09-30T06:47:23;96366.47;;;15.86;100.00
27429;BME280;14881;48.092;11.574;2023-09-30T06:49:50;96352.47;;;15.88;100.00
27429;BME280;14881;48.092;11.574;2023-09-30T06:52:17;96358.03;;;15.83;100.00
27429;BME280;14881;48.092;11.574;2023-09-30T06:54:43;96366.47;;;15.86;100.00
27429;BME280;14881;48.092;11.574;2023-09-30T06:57:09;96381.28;;;15.85;100.00
27429;BME280;14881;48.092;11.574;2023-09-30T06:59:36;96381.03;;;16.00;100.00
27429;BME280;14881;48.092;11.574;2023-09-30T07:02:03;96388.94;;;16.16;100.00
27429;BME280;14881;48.092;11.574;2023-09-30T07:04:30;96375.25;;;16.29;100.00
27429;BME280;14881;48.092;11.574;2023-09-30T07:06:57;96376.56;;;16.18;100.00
27429;BME280;14881;48.092;11.574;2023-09-30T07:09:23;96375.47;;;16.33;100.00
27429;BME280;14881;48.092;11.574;2023-09-30T07:11:50;96383.50;;;16.43;100.00
27429;BME280;14881;48.092;11.574;2023-09-30T07:14:16;96380.63;;;16.48;100.00
27429;BME280;14881;48.092;11.574;2023-09-30T07:16:43;96381.94;;;16.51;100.00
27429;BME280;14881;48.092;11.574;2023-09-30T07:19:09;96378.31;;;16.42;100.00
27429;BME280;14881;48.092;11.574;2023-09-30T07:21:35;96381.38;;;16.26;100.00
27429;BME280;14881;48.092;11.574;2023-09-30T07:24:06;96383.88;;;16.50;100.00
27429;BME280;14881;48.092;11.574;2023-09-30T07:26:33;96375.28;;;16.43;100.00
27429;BME280;14881;48.092;11.574;2023-09-30T07:28:59;96378.69;;;16.49;100.00
27429;BME280;14881;48.092;11.574;2023-09-30T07:31:26;96386.75;;;16.59;100.00
27429;BME280;14881;48.092;11.574;2023-09-30T07:33:52;96390.00;;;16.61;100.00
27429;BME280;14881;48.092;11.574;2023-09-30T07:36:19;96386.84;;;16.54;100.00
27429;BME280;14881;48.092;11.574;2023-09-30T07:38:45;96384.69;;;16.51;100.00
27429;BME280;14881;48.092;11.574;2023-09-30T07:41:13;96402.97;;;16.14;100.00
27429;BME280;14881;48.092;11.574;2023-09-30T07:43:40;96409.78;;;16.17;100.00
27429;BME280;14881;48.092;11.574;2023-09-30T07:46:06;96409.78;;;16.30;100.00
27429;BME280;14881;48.092;11.574;2023-09-30T07:48:33;96408.78;;;16.40;100.00
27429;BME280;14881;48.092;11.574;2023-09-30T07:51:00;96408.66;;;16.31;100.00
27429;BME280;14881;48.092;11.574;2023-09-30T07:53:27;96412.22;;;16.32;100.00
27429;BME280;14881;48.092;11.574;2023-09-30T07:55:54;96412.84;;;16.43;100.00
27429;BME280;14881;48.092;11.574;2023-09-30T07:58:21;96410.22;;;16.38;100.00
27429;BME280;14881;48.092;11.574;2023-09-30T08:00:47;96423.72;;;16.34;100.00
27429;BME280;14881;48.092;11.574;2023-09-30T08:03:14;96426.06;;;16.41;100.00
27429;BME280;14881;48.092;11.574;2023-09-30T08:05:40;96432.66;;;16.40;100.00
27429;BME280;14881;48.092;11.574;2023-09-30T08:08:07;96426.16;;;16.49;100.00
27429;BME280;14881;48.092;11.574;2023-09-30T08:10:34;96418.94;;;16.53;100.00
27429;BME280;14881;48.092;11.574;2023-09-30T08:13:03;96417.09;;;16.62;100.00
27429;BME280;14881;48.092;11.574;2023-09-30T08:15:30;96426.47;;;16.61;100.00
27429;BME280;14881;48.092;11.574;2023-09-30T08:17:57;96432.06;;;16.84;100.00
27429;BME280;14881;48.092;11.574;2023-09-30T08:20:23;96425.38;;;16.90;100.00
27429;BME280;14881;48.092;11.574;2023-09-30T08:22:49;96416.53;;;16.93;100.00
27429;BME280;14881;48.092;11.574;2023-09-30T08:25:16;96397.41;;;16.88;100.00
27429;BME280;14881;48.092;11.574;2023-09-30T08:27:42;96390.16;;;17.05;100.00
27429;BME280;14881;48.092;11.574;2023-09-30T08:30:11;96393.41;;;17.08;100.00
27429;BME280;14881;48.092;11.574;2023-09-30T08:32:38;96403.31;;;17.31;100.00
27429;BME280;14881;48.092;11.574;2023-09-30T08:35:06;96416.03;;;17.49;100.00
27429;BME280;14881;48.092;11.574;2023-09-30T08:37:33;96428.34;;;17.65;100.00
27429;BME280;14881;48.092;11.574;2023-09-30T08:39:59;96428.94;;;17.85;100.00
27429;BME280;14881;48.092;11.574;2023-09-30T08:42:27;96413.53;;;17.97;100.00
27429;BME280;14881;48.092;11.574;2023-09-30T08:44:57;96427.22;;;17.89;100.00
27429;BME280;14881;48.092;11.574;2023-09-30T08:47:26;96434.75;;;17.61;100.00
27429;BME280;14881;48.092;11.574;2023-09-30T08:49:54;96424.88;;;17.60;100.00
27429;BME280;14881;48.092;11.574;2023-09-30T08:52:24;96421.91;;;17.70;100.00
27429;BME280;14881;48.092;11.574;2023-09-30T08:54:51;96430.97;;;17.93;100.00
27429;BME280;14881;48.092;11.574;2023-09-30T08:57:18;96435.31;;;18.16;100.00
27429;BME280;14881;48.092;11.574;2023-09-30T08:59:46;96426.97;;;17.99;100.00
27429;BME280;14881;48.092;11.574;2023-09-30T09:02:14;96419.56;;;17.63;100.00
27429;BME280;14881;48.092;11.574;2023-09-30T09:04:41;96415.47;;;17.74;100.00
27429;BME280;14881;48.092;11.574;2023-09-30T09:07:09;96412.41;;;17.76;100.00
27429;BME280;14881;48.092;11.574;2023-09-30T09:09:35;96409.78;;;17.93;100.00
27429;BME280;14881;48.092;11.574;2023-09-30T09:12:02;96402.97;;;18.22;100.00
27429;BME280;14881;48.092;11.574;2023-09-30T09:14:36;96394.94;;;18.65;100.00
27429;BME280;14881;48.092;11.574;2023-09-30T09:17:05;96416.97;;;18.73;100.00
27429;BME280;14881;48.092;11.574;2023-09-30T09:19:33;96407.59;;;18.74;100.00
27429;BME280;14881;48.092;11.574;2023-09-30T09:22:00;96404.81;;;18.74;100.00
27429;BME280;14881;48.092;11.574;2023-09-30T09:24:29;96396.09;;;18.81;100.00
27429;BME280;14881;48.092;11.574;2023-09-30T09:27:04;96398.25;;;19.10;100.00
27429;BME280;14881;48.092;11.574;2023-09-30T09:29:31;96411.75;;;19.20;100.00
27429;BME280;14881;48.092;11.574;2023-09-30T09:32:06;96421.22;;;18.80;100.00
27429;BME280;14881;48.092;11.574;2023-09-30T09:34:32;96428.50;;;18.44;100.00
27429;BME280;14881;48.092;11.574;2023-09-30T09:36:59;96433.16;;;18.35;100.00
27429;BME280;14881;48.092;11.574;2023-09-30T09:39:29;96440.81;;;18.47;100.00
27429;BME280;14881;48.092;11.574;2023-09-30T09:41:58;96431.38;;;18.39;100.00
27429;BME280;14881;48.092;11.574;2023-09-30T09:44:27;96411.69;;;18.55;100.00
27429;BME280;14881;48.092;11.574;2023-09-30T09:46:54;96402.59;;;18.85;100.00
27429;BME280;14881;48.092;11.574;2023-09-30T09:49:24;96393.69;;;18.88;100.00
27429;BME280;14881;48.092;11.574;2023-09-30T09:51:52;96361.03;;;19.21;100.00
27429;BME280;14881;48.092;11.574;2023-09-30T09:54:19;96359.38;;;19.46;100.00
27429;BME280;14881;48.092;11.574;2023-09-30T09:56:49;96359.50;;;19.93;100.00
27429;BME280;14881;48.092;11.574;2023-09-30T09:59:17;96344.28;;;19.87;100.00
27429;BME280;14881;48.092;11.574;2023-09-30T10:01:43;96350.41;;;20.01;100.00
27429;BME280;14881;48.092;11.574;2023-09-30T10:04:11;96341.50;;;20.42;100.00
27429;BME280;14881;48.092;11.574;2023-09-30T10:06:39;96360.47;;;20.43;100.00
27429;BME280;14881;48.092;11.574;2023-09-30T10:09:10;96363.56;;;20.50;100.00
27429;BME280;14881;48.092;11.574;2023-09-30T10:11:38;96379.28;;;20.59;100.00
27429;BME280;14881;48.092;11.574;2023-09-30T10:14:06;96377.13;;;20.64;100.00
27429;BME280;14881;48.092;11.574;2023-09-30T10:16:48;96370.91;;;20.76;100.00
27429;BME280;14881;48.092;11.574;2023-09-30T10:19:20;96373.47;;;21.10;100.00
27429;BME280;14881;48.092;11.574;2023-09-30T10:22:20;96364.38;;;21.31;100.00
27429;BME280;14881;48.092;11.574;2023-09-30T10:24:48;96370.31;;;21.21;100.00
27429;BME280;14881;48.092;11.574;2023-09-30T10:27:31;96365.19;;;21.31;100.00
27429;BME280;14881;48.092;11.574;2023-09-30T10:29:59;96375.75;;;21.50;100.00
27429;BME280;14881;48.092;11.574;2023-09-30T10:33:10;96360.41;;;21.19;100.00
27429;BME280;14881;48.092;11.574;2023-09-30T10:35:44;96364.22;;;21.06;100.00
27429;BME280;14881;48.092;11.574;2023-09-30T10:38:37;96361.13;;;20.78;100.00
27429;BME280;14881;48.092;11.574;2023-09-30T10:41:06;96352.03;;;20.48;100.00
27429;BME280;14881;48.092;11.574;2023-09-30T10:43:34;96348.09;;;20.58;100.00
27429;BME280;14881;48.092;11.574;2023-09-30T10:46:02;96351.59;;;20.29;100.00
27429;BME280;14881;48.092;11.574;2023-09-30T10:48:38;96347.34;;;20.32;100.00
27429;BME280;14881;48.092;11.574;2023-09-30T10:51:15;96348.50;;;20.39;100.00
27429;BME280;14881;48.092;11.574;2023-09-30T10:53:46;96358.00;;;20.59;100.00
27429;BME280;14881;48.092;11.574;2023-09-30T10:56:14;96368.56;;;20.57;100.00
27429;BME280;14881;48.092;11.574;2023-09-30T10:58:42;96359.34;;;20.44;100.00
27429;BME280;14881;48.092;11.574;2023-09-30T11:01:09;96358.66;;;20.56;100.00
27429;BME280;14881;48.092;11.574;2023-09-30T11:03:35;96368.69;;;20.23;100.00
27429;BME280;14881;48.092;11.574;2023-09-30T11:06:02;96367.22;;;20.25;100.00
27429;BME280;14881;48.092;11.574;2023-09-30T11:08:40;96346.13;;;20.21;100.00
27429;BME280;14881;48.092;11.574;2023-09-30T11:11:08;96349.34;;;20.23;100.00
27429;BME280;14881;48.092;11.574;2023-09-30T11:13:34;96339.91;;;20.41;100.00
27429;BME280;14881;48.092;11.574;2023-09-30T11:16:01;96330.84;;;20.61;100.00
27429;BME280;14881;48.092;11.574;2023-09-30T11:18:32;96332.34;;;20.59;100.00
27429;BME280;14881;48.092;11.574;2023-09-30T11:21:06;96341.84;;;20.70;100.00
27429;BME280;14881;48.092;11.574;2023-09-30T11:23:36;96348.13;;;20.79;100.00
27429;BME280;14881;48.092;11.574;2023-09-30T11:26:03;96341.41;;;20.89;100.00
27429;BME280;14881;48.092;11.574;2023-09-30T11:28:38;96334.53;;;21.24;100.00
27429;BME280;14881;48.092;11.574;2023-09-30T11:31:08;96340.28;;;21.52;100.00
27429;BME280;14881;48.092;11.574;2023-09-30T11:33:58;96333.84;;;22.14;100.00
27429;BME280;14881;48.092;11.574;2023-09-30T11:36:29;96336.41;;;22.55;100.00
27429;BME280;14881;48.092;11.574;2023-09-30T11:38:56;96326.03;;;22.65;100.00
27429;BME280;14881;48.092;11.574;2023-09-30T11:41:32;96337.63;;;22.21;100.00
27429;BME280;14881;48.092;11.574;2023-09-30T11:44:04;96342.69;;;21.74;100.00
27429;BME280;14881;48.092;11.574;2023-09-30T11:46:31;96353.97;;;21.48;100.00
27429;BME280;14881;48.092;11.574;2023-09-30T11:49:01;96350.19;;;21.11;100.00
27429;BME280;14881;48.092;11.574;2023-09-30T11:51:28;96356.00;;;20.68;100.00
27429;BME280;14881;48.092;11.574;2023-09-30T11:53:55;96349.22;;;20.87;100.00
27429;BME280;14881;48.092;11.574;2023-09-30T11:56:23;96352.09;;;20.69;100.00
27429;BME280;14881;48.092;11.574;2023-09-30T11:58:56;96351.75;;;20.71;100.00
27429;BME280;14881;48.092;11.574;2023-09-30T12:01:23;96339.00;;;20.58;100.00
27429;BME280;14881;48.092;11.574;2023-09-30T12:03:51;96327.78;;;20.83;100.00
27429;BME280;14881;48.092;11.574;2023-09-30T12:06:19;96318.09;;;20.98;100.00
27429;BME280;14881;48.092;11.574;2023-09-30T12:08:46;96311.03;;;21.30;100.00
27429;BME280;14881;48.092;11.574;2023-09-30T12:11:12;96299.06;;;21.59;100.00
27429;BME280;14881;48.092;11.574;2023-09-30T12:13:41;96294.81;;;21.62;100.00
27429;BME280;14881;48.092;11.574;2023-09-30T12:16:10;96290.78;;;21.71;100.00
27429;BME280;14881;48.092;11.574;2023-09-30T12:18:38;96292.94;;;21.53;100.00
27429;BME280;14881;48.092;11.574;2023-09-30T12:21:07;96294.81;;;21.29;100.00
27429;BME280;14881;48.092;11.574;2023-09-30T12:23:34;96286.00;;;21.06;100.00
27429;BME280;14881;48.092;11.574;2023-09-30T12:26:01;96289.81;;;21.22;100.00
27429;BME280;14881;48.092;11.574;2023-09-30T12:28:41;96289.97;;;21.17;100.00
27429;BME280;14881;48.092;11.574;2023-09-30T12:31:07;96289.22;;;20.66;100.00
27429;BME280;14881;48.092;11.574;2023-09-30T12:33:33;96299.81;;;20.85;100.00
27429;BME280;14881;48.092;11.574;2023-09-30T12:36:00;96294.81;;;20.78;100.00
27429;BME280;14881;48.092;11.574;2023-09-30T12:38:27;96292.47;;;20.68;100.00
27429;BME280;14881;48.092;11.574;2023-09-30T12:40:55;96295.31;;;21.01;100.00
27429;BME280;14881;48.092;11.574;2023-09-30T12:43:25;96288.91;;;21.09;100.00
27429;BME280;14881;48.092;11.574;2023-09-30T12:45:51;96283.72;;;20.87;100.00